Latest Weather Observations for Scherger

IDQ60801

Issued at 5:05 pm EST Thursday 31 July 2014 (issued every 30 minutes, with the page automatically refreshed every 10 minutes)

About weather observations | Map of weather stations | Latest weather observations for QLD | Other Formats
Station Details ID: 027075 Name: SCHERGER RAAF Lat: -12.62 Lon: 142.09 Height: 39.34 m
Data from the previous 72 hours. | See also: Recent months at Scherger
Date/Time
EST
Temp
°C
App
Temp
°C
Dew
Point
Rel
Hum
%
Delta-T
°C
Wind Press
QNH
hPa
Press
MSL
hPa
Rain
since 9 am
mm
Dir
 
Spd
km/h
Gust
km/h
Spd
kts
Gust
kts
31/05:00pm 29.8 28.9 15.9 43 8.6 ESE 15 26 8 14 1012.3 - 0.0
31/04:30pm 30.4 29.2 16.0 41 9.0 ESE 17 24 9 13 1012.2 - 0.0
31/04:00pm 31.1 30.9 16.7 42 9.1 E 13 20 7 11 1012.1 - 0.0
31/03:30pm 31.3 30.6 16.5 41 9.3 E 15 22 8 12 1012.0 - 0.0
31/03:00pm 30.8 30.0 16.0 40 9.2 E 15 24 8 13 1012.2 1012.0 0.0
31/02:30pm 30.6 29.3 15.8 40 9.2 ESE 17 28 9 15 1012.6 - 0.0
31/02:00pm 30.7 30.0 16.3 42 9.0 ESE 15 24 8 13 1013.1 - 0.0
31/01:30pm 30.7 30.8 17.4 45 8.5 ESE 13 20 7 11 1013.5 - 0.0
31/01:00pm 29.8 28.6 17.6 48 7.8 SSE 20 30 11 16 1013.8 - 0.0
31/12:30pm 29.9 29.0 17.7 48 7.8 E 19 28 10 15 1014.3 - 0.0
31/12:00pm 28.4 28.2 17.6 52 6.8 E 15 26 8 14 1014.8 1014.6 0.0
31/11:30am 28.2 28.2 18.0 54 6.5 E 15 24 8 13 1015.5 - 0.0
31/11:00am 27.0 27.6 17.8 57 5.8 E 11 20 6 11 1016.1 - 0.0
31/10:30am 27.3 26.9 17.2 54 6.3 E 15 37 8 20 1016.0 - 0.0
31/10:00am 26.4 26.2 17.7 58 5.5 ESE 15 24 8 13 1016.0 - 0.0
31/09:30am 25.4 25.3 17.8 62 4.8 ESE 15 22 8 12 1016.2 - 0.0
31/09:00am 24.5 25.9 18.7 70 3.7 ESE 9 19 5 10 1016.2 1016.1 0.0
31/08:30am 22.9 24.4 18.9 78 2.5 ESE 9 20 5 11 1016.1 - 0.0
31/08:00am 20.9 22.7 18.8 88 1.3 ESE 7 13 4 7 1016.2 - 0.0
31/07:30am 18.4 19.7 17.1 92 0.8 SSE 6 7 3 4 1016.0 - 0.0
31/07:00am 17.5 19.5 16.0 91 0.9 CALM 0 0 0 0 1015.9 - 0.0
31/06:30am 17.5 18.4 16.0 91 0.9 S 6 7 3 4 1015.6 - 0.0
31/06:00am 17.5 19.4 15.8 90 1.0 CALM 0 0 0 0 1015.2 1015.0 0.0
31/05:30am 17.8 19.8 16.1 90 1.0 CALM 0 0 0 0 1014.9 - 0.0
31/05:00am 18.1 20.1 16.1 88 1.2 CALM 0 0 0 0 1014.9 - 0.0
31/04:30am 18.2 20.3 16.2 88 1.2 CALM 0 0 0 0 1015.0 - 0.0
31/04:00am 18.5 19.6 16.5 88 1.2 SSE 6 7 3 4 1015.1 - 0.0
31/03:30am 18.7 19.6 16.7 88 1.2 SSE 7 7 4 4 1015.0 - 0.0
31/03:00am 18.8 21.0 16.6 87 1.3 CALM 0 0 0 0 1015.2 1015.0 0.0
31/02:30am 19.0 21.2 16.4 85 1.6 CALM 0 0 0 0 1015.1 - 0.0
31/02:00am 19.9 21.5 16.9 83 1.8 SE 4 7 2 4 1015.5 - 0.0
31/01:30am 20.1 21.3 16.9 82 1.9 SE 6 9 3 5 1015.6 - 0.0
31/01:00am 20.2 21.5 17.0 82 1.9 SSE 6 9 3 5 1015.8 - 0.0
31/12:30am 20.5 21.6 16.7 79 2.3 SSE 6 7 3 4 1016.0 - 0.0
31/12:00am 21.2 22.5 17.0 77 2.6 SE 6 7 3 4 1016.2 1016.1 0.0
 
Date/Time
EST
Temp
°C
App
Temp
°C
Dew
Point
Rel
Hum
%
Delta-T
°C
Wind Press
QNH
hPa
Press
MSL
hPa
Rain
since 9 am
mm
Dir
 
Spd
km/h
Gust
km/h
Spd
kts
Gust
kts
30/11:30pm 21.5 22.8 17.1 76 2.7 ESE 6 9 3 5 1016.2 - 0.0
30/11:00pm 21.9 23.1 17.3 75 2.8 SE 7 11 4 6 1016.3 - 0.0
30/10:30pm 22.2 23.2 16.9 72 3.2 ESE 7 11 4 6 1016.3 - 0.0
30/10:00pm 22.7 23.6 16.7 69 3.7 ESE 7 13 4 7 1016.3 - 0.0
30/09:30pm 23.5 23.8 17.0 67 4.0 E 11 20 6 11 1016.2 - 0.0
30/09:00pm 23.7 24.0 17.0 66 4.1 E 11 22 6 12 1016.0 1015.9 0.0
30/08:30pm 24.3 24.8 17.5 66 4.2 E 11 20 6 11 1015.6 - 0.0
30/08:00pm 24.9 25.2 16.9 61 5.0 E 11 20 6 11 1015.1 - 0.0
30/07:30pm 25.1 25.1 16.3 58 5.4 ESE 11 17 6 9 1014.4 - 0.0
30/07:00pm 25.4 25.3 16.0 56 5.7 E 11 15 6 8 1014.0 - 0.0
30/06:30pm 26.0 25.8 15.7 53 6.3 ESE 11 19 6 10 1013.8 - 0.0
30/06:00pm 27.1 25.8 15.8 50 6.9 E 17 28 9 15 1013.5 1013.3 0.0
30/05:30pm 27.9 26.5 15.5 46 7.6 ESE 17 32 9 17 1013.2 - 0.0
30/05:00pm 28.2 27.3 15.8 47 7.6 E 15 22 8 12 1013.0 - 0.0
30/04:30pm 29.0 28.0 15.5 44 8.3 ESE 15 24 8 13 1012.7 - 0.0
30/04:00pm 29.9 29.1 16.0 43 8.6 E 15 28 8 15 1012.5 - 0.0
30/03:30pm 30.5 29.2 15.8 41 9.1 E 17 28 9 15 1012.5 - 0.0
30/03:00pm 30.3 29.3 16.7 44 8.6 ESE 17 35 9 19 1012.7 1012.5 0.0
30/02:30pm 29.8 28.9 15.9 43 8.6 E 15 32 8 17 1012.9 - 0.0
30/02:00pm 30.9 30.0 16.9 43 8.8 E 17 30 9 16 1013.3 - 0.0
30/01:30pm 29.7 27.8 16.8 45 8.1 ESE 22 39 12 21 1013.7 - 0.0
30/01:00pm 29.8 28.2 16.6 45 8.3 E 20 35 11 19 1014.2 - 0.0
30/12:30pm 29.6 29.1 16.8 46 8.0 ESE 15 32 8 17 1014.7 - 0.0
30/12:00pm 28.6 27.0 16.5 48 7.5 ESE 20 30 11 16 1015.1 1014.9 0.0
30/11:30am 28.6 27.8 17.2 50 7.2 E 17 35 9 19 1015.6 - 0.0
30/11:00am 27.0 25.7 17.2 55 6.1 E 20 32 11 17 1016.3 - 0.0
30/10:30am 26.1 24.8 17.2 58 5.6 E 20 33 11 18 1016.6 - 0.0
30/10:00am 26.0 24.8 17.6 60 5.3 E 20 33 11 18 1016.8 - 0.0
30/09:30am 25.3 24.9 18.0 64 4.6 ESE 17 24 9 13 1016.9 - 0.0
30/09:00am 23.5 23.0 17.7 70 3.6 ESE 17 24 9 13 1016.9 1016.8 0.0
30/08:30am 22.4 23.5 18.0 76 2.7 ESE 9 19 5 10 1016.9 - 0.0
30/08:00am 20.4 21.8 17.4 83 1.8 SE 6 9 3 5 1016.7 - 0.0
30/07:30am 18.3 20.4 16.3 88 1.2 CALM 0 0 0 0 1016.5 - 0.0
30/07:00am 17.6 18.6 15.4 87 1.3 SSE 4 7 2 4 1016.1 - 0.0
30/06:30am 17.9 19.7 15.5 86 1.4 CALM 0 0 0 0 1015.8 - 0.0
30/06:00am 18.5 19.4 16.1 86 1.4 SE 6 9 3 5 1015.5 1015.3 0.0
30/05:30am 18.9 19.8 16.1 84 1.7 SE 6 9 3 5 1015.3 - 0.0
30/05:00am 19.1 19.8 16.1 83 1.8 SE 7 11 4 6 1015.2 - 0.0
30/04:30am 19.6 20.4 16.4 82 1.9 SE 7 15 4 8 1014.9 - 0.0
30/04:00am 19.9 20.5 16.7 82 1.9 ESE 9 17 5 9 1014.9 - 0.0
30/03:30am 19.7 20.6 16.5 82 1.9 SSE 7 11 4 6 1015.1 - 0.0
30/03:00am 20.4 20.9 16.6 79 2.3 SE 9 15 5 8 1015.0 1014.8 0.0
30/02:30am 20.5 21.2 17.1 81 2.1 SE 9 15 5 8 1015.3 - 0.0
30/02:00am 20.9 21.3 17.3 80 2.2 ESE 11 17 6 9 1015.6 - 0.0
30/01:30am 20.8 20.9 17.4 81 2.1 ESE 13 20 7 11 1016.0 - 0.0
30/01:00am 20.7 21.0 17.1 80 2.2 ESE 11 19 6 10 1016.3 - 0.0
30/12:30am 20.6 21.3 17.0 80 2.2 ESE 9 19 5 10 1016.4 - 0.0
30/12:00am 20.1 20.9 16.3 79 2.3 SE 7 11 4 6 1016.6 1016.5 0.0
 
Date/Time
EST
Temp
°C
App
Temp
°C
Dew
Point
Rel
Hum
%
Delta-T
°C
Wind Press
QNH
hPa
Press
MSL
hPa
Rain
since 9 am
mm
Dir
 
Spd
km/h
Gust
km/h
Spd
kts
Gust
kts
29/11:30pm 20.4 21.1 16.2 77 2.5 SE 7 9 4 5 1016.8 - 0.0
29/11:00pm 20.7 21.4 15.7 73 3.0 SE 6 7 3 4 1016.9 - 0.0
29/10:30pm 21.5 22.2 16.0 71 3.3 ESE 7 13 4 7 1017.0 - 0.0
29/10:00pm 22.0 22.7 16.1 69 3.6 ESE 7 11 4 6 1017.0 - 0.0
29/09:30pm 22.3 22.9 15.9 67 3.9 ESE 7 13 4 7 1017.0 - 0.0
29/09:00pm 22.8 23.6 15.9 65 4.2 ESE 6 9 3 5 1017.0 1016.9 0.0
29/08:30pm 23.6 23.9 16.1 62 4.6 E 9 13 5 7 1016.8 - 0.0
29/08:00pm 24.1 24.4 15.9 60 5.0 ESE 9 15 5 8 1016.4 - 0.0
29/07:30pm 24.8 24.3 16.0 58 5.4 E 13 22 7 12 1015.9 - 0.0
29/07:00pm 25.2 24.4 16.1 57 5.6 E 15 26 8 14 1015.4 - 0.0
29/06:30pm 25.7 25.2 16.0 55 5.9 E 13 24 7 13 1015.0 - 0.0
29/06:00pm 26.3 26.0 16.5 54 6.1 ESE 13 22 7 12 1014.6 1014.4 0.0
29/05:30pm 27.1 25.0 15.1 47 7.3 ESE 20 33 11 18 1014.3 - 0.0
29/05:00pm 28.2 26.0 14.4 42 8.3 E 19 32 10 17 1013.8 - 0.0
29/04:30pm 29.2 28.0 15.0 42 8.7 ESE 15 24 8 13 1013.5 - 0.0
29/04:00pm 29.7 27.6 14.7 40 9.1 E 19 32 10 17 1013.4 - 0.0
29/03:30pm 29.8 28.2 15.9 43 8.6 E 19 35 10 19 1013.5 - 0.0
29/03:00pm 30.0 29.1 16.8 45 8.3 E 17 32 9 17 1013.6 1013.4 0.0
29/02:30pm 29.0 27.4 15.9 45 8.1 E 19 32 10 17 1014.0 - 0.0
29/02:00pm 29.9 28.4 16.7 45 8.3 ESE 20 37 11 20 1014.3 - 0.0
29/01:30pm 28.4 26.9 16.3 47 7.5 ESE 19 35 10 19 1015.0 - 0.0
29/01:00pm 28.3 28.1 17.5 52 6.8 ESE 15 26 8 14 1015.3 - 0.0
29/12:30pm 28.6 27.6 17.5 51 7.0 E 19 35 10 19 1015.8 - 0.0
29/12:00pm 27.1 25.1 17.3 55 6.1 SE 24 35 13 19 1016.3 1016.2 0.0
29/11:30am 26.4 25.4 17.5 58 5.6 ESE 19 35 10 19 1016.7 - 0.0
29/11:00am 27.2 27.1 18.8 60 5.4 E 17 32 9 17 1017.1 - 0.0
29/10:30am 26.1 26.1 19.0 65 4.6 E 17 32 9 17 1017.3 - 0.0
29/10:00am 25.0 25.2 19.4 71 3.6 ESE 17 28 9 15 1017.6 - 0.0
29/09:30am 24.2 25.3 19.7 76 2.9 ESE 13 24 7 13 1017.6 - 0.0
29/09:28am 24.1 25.1 19.4 75 3.0 SE 13 24 7 13 1017.6 - 0.0
29/09:13am 23.2 23.4 19.4 79 2.4 SE 17 24 9 13 1017.6 - 0.0
29/09:00am 22.6 23.1 19.2 81 2.2 ESE 15 22 8 12 1017.5 1017.4 0.2
29/08:30am 21.6 22.2 19.5 88 1.3 SE 15 26 8 14 1017.2 - 0.2
29/08:00am 20.7 22.0 18.5 87 1.4 SSE 9 15 5 8 1017.0 - 0.2
29/07:30am 19.9 21.2 18.4 91 0.9 SSE 9 15 5 8 1016.8 - 0.2
29/07:00am 19.8 20.3 18.3 91 0.9 SSE 13 17 7 9 1016.5 - 0.2
29/06:30am 19.8 21.1 18.5 92 0.8 SSE 9 19 5 10 1016.3 - 0.2
29/06:00am 20.0 21.4 18.7 92 0.8 SSE 9 13 5 7 1016.0 1015.9 0.2
29/05:30am 19.8 21.5 18.6 93 0.7 SSE 7 11 4 6 1015.7 - 0.2
29/05:00am 19.8 20.7 18.5 92 0.8 SSE 11 15 6 8 1015.6 - 0.2
29/04:30am 20.5 21.7 18.3 87 1.4 SSE 9 15 5 8 1015.6 - 0.0
29/04:00am 21.0 21.7 18.0 83 1.9 SSE 11 17 6 9 1015.5 - 0.0
29/03:30am 20.9 22.8 17.7 82 2.0 ESE 4 7 2 4 1015.4 - 0.0
29/03:00am 20.9 21.9 17.7 82 2.0 SSE 9 13 5 7 1015.3 1015.1 0.0
29/02:30am 20.8 21.9 18.0 84 1.7 SSE 9 15 5 8 1015.4 - 0.0
29/02:00am 20.5 21.6 17.9 85 1.6 SSE 9 13 5 7 1015.6 - 0.0
29/01:30am 20.6 21.6 17.8 84 1.7 S 9 13 5 7 1015.9 - 0.0
29/01:00am 20.8 21.9 18.0 84 1.7 SSE 9 15 5 8 1015.9 - 0.0
29/12:30am 21.0 22.1 18.0 83 1.9 SSE 9 15 5 8 1016.3 - 0.0
29/12:00am 21.1 22.5 17.9 82 2.0 SSE 7 13 4 7 1016.4 1016.3 0.0
 
Date/Time
EST
Temp
°C
App
Temp
°C
Dew
Point
Rel
Hum
%
Delta-T
°C
Wind Press
QNH
hPa
Press
MSL
hPa
Rain
since 9 am
mm
Dir
 
Spd
km/h
Gust
km/h
Spd
kts
Gust
kts
28/11:30pm 21.5 22.3 18.1 81 2.1 SSE 11 19 6 10 1016.5 - 0.0
28/11:00pm 21.8 22.6 18.2 80 2.2 SE 11 17 6 9 1016.6 - 0.0
28/10:30pm 21.7 22.6 18.3 81 2.1 SE 11 20 6 11 1016.7 - 0.0
28/10:00pm 21.7 22.5 18.1 80 2.2 SE 11 20 6 11 1016.6 - 0.0
28/09:30pm 21.8 22.4 17.8 78 2.5 SE 11 15 6 8 1016.6 - 0.0
28/09:00pm 22.0 22.6 17.6 76 2.7 SE 11 17 6 9 1016.6 1016.5 0.0
28/08:30pm 22.7 23.3 17.6 73 3.2 SE 11 17 6 9 1016.4 - 0.0
28/08:00pm 23.2 23.0 17.6 71 3.5 SE 15 28 8 15 1016.1 - 0.0
28/07:30pm 23.3 23.9 17.7 71 3.5 SE 11 20 6 11 1015.8 - 0.0
28/07:00pm 24.9 24.2 17.4 63 4.7 E 17 35 9 19 1015.5 - 0.0
28/06:30pm 24.8 25.8 16.8 61 4.9 SE 7 11 4 6 1014.6 - 0.0
28/06:00pm 25.7 25.9 16.8 58 5.5 ESE 11 19 6 10 1014.4 1014.2 0.0
28/05:30pm 26.6 27.1 17.4 57 5.8 ESE 11 20 6 11 1014.0 - 0.0

Other Formats:

Comma delimited format used in spreadsheet applications
http://www.bom.gov.au/fwo/IDQ60801/IDQ60801.94171.axf

JavaScript Object Notation format (JSON) in row-major order
http://www.bom.gov.au/fwo/IDQ60801/IDQ60801.94171.json